Terminal Aerodrome Forecast
Issued by NWS

Home | Current Version | Previous Version | Text Only | Print | Product List | Glossary On
Versions: 1 2 3 4 5 6 7 8 9 10 11 12 13 14 15 16 17 18
006
FTUS42 KMLB 251126
TAFISM
TAF
KISM 251126Z 2512/2612 26006KT P6SM FEW020 SCT035 BKN070
     FM251400 27010KT P6SM SCT050 BKN070
     FM251600 28013G20KT P6SM SCT060
     FM260000 29010KT P6SM SKC
     FM260600 30004KT P6SM SKC=

USA.gov is the U.S. government's official web portal to all federal, state and local government web resources and services.